createdAt,value
2022-12-27T00:02:07.953Z,100181.59
2022-12-27T00:04:35.621Z,100186.59
2022-12-27T00:07:03.258Z,100179.13
2022-12-27T00:09:30.613Z,100174.66
2022-12-27T00:12:00.018Z,100184.97
2022-12-27T00:14:27.814Z,100176.53
2022-12-27T00:16:55.161Z,100159.16
2022-12-27T00:19:22.840Z,100151.00
2022-12-27T00:21:50.257Z,100160.38
2022-12-27T00:24:17.588Z,100156.66
2022-12-27T00:26:45.224Z,100168.50
2022-12-27T00:29:12.601Z,100172.72
2022-12-27T00:31:40.232Z,100168.72
2022-12-27T00:34:08.216Z,100175.69
2022-12-27T00:36:35.781Z,100169.44
2022-12-27T00:39:03.418Z,100173.41
2022-12-27T00:41:31.428Z,100163.22
2022-12-27T00:43:58.850Z,100160.50
2022-12-27T00:46:26.209Z,100143.03
2022-12-27T00:48:55.281Z,100155.13
2022-12-27T00:51:23.741Z,100140.53
2022-12-27T00:53:51.676Z,100152.47
2022-12-27T00:56:21.001Z,100149.47
2022-12-27T00:58:48.359Z,100142.37
2022-12-27T01:01:19.551Z,100146.19
2022-12-27T01:03:48.274Z,100146.91
2022-12-27T01:06:17.592Z,100149.66
2022-12-27T01:08:45.363Z,100139.22
2022-12-27T01:11:13.265Z,100128.37
2022-12-27T01:13:40.649Z,100137.47
2022-12-27T01:16:12.480Z,100126.03
2022-12-27T01:18:40.151Z,100133.72
2022-12-27T01:21:08.214Z,100134.41
2022-12-27T01:23:35.949Z,100129.59
2022-12-27T01:26:07.979Z,100123.00
2022-12-27T01:28:35.557Z,100117.22
2022-12-27T01:31:07.030Z,100124.28
2022-12-27T01:33:34.712Z,100138.53
2022-12-27T01:36:28.787Z,100142.59
2022-12-27T01:38:58.093Z,100138.50
2022-12-27T01:41:52.107Z,100143.19
2022-12-27T01:44:38.481Z,100151.75
2022-12-27T01:47:32.760Z,100163.81
2022-12-27T01:50:15.182Z,100171.00
2022-12-27T01:53:17.624Z,100168.06
2022-12-27T01:56:04.698Z,100178.63
2022-12-27T01:58:48.617Z,100181.41
2022-12-27T02:01:18.208Z,100176.69
2022-12-27T02:03:48.405Z,100171.09
2022-12-27T02:06:16.047Z,100169.88
2022-12-27T02:08:57.017Z,100170.69
2022-12-27T02:11:51.334Z,100169.66
2022-12-27T02:14:42.957Z,100170.59
2022-12-27T02:17:16.134Z,100162.31
2022-12-27T02:20:00.914Z,100171.00
2022-12-27T02:23:05.581Z,100170.38
2022-12-27T02:25:51.132Z,100167.72
2022-12-27T02:28:46.314Z,100168.94
2022-12-27T02:31:29.172Z,100163.91
2022-12-27T02:33:56.850Z,100160.75
2022-12-27T02:36:27.265Z,100150.94
2022-12-27T02:38:56.704Z,100145.78
2022-12-27T02:41:43.066Z,100151.44
2022-12-27T02:44:30.427Z,100141.78
2022-12-27T02:47:16.892Z,100151.44
2022-12-27T02:50:02.934Z,100143.09
2022-12-27T02:52:58.365Z,100141.78
2022-12-27T02:56:04.359Z,100140.44
2022-12-27T02:58:53.882Z,100153.78
2022-12-27T03:01:52.168Z,100164.09
2022-12-27T03:04:38.722Z,100161.44
2022-12-27T03:07:08.636Z,100163.91
2022-12-27T03:10:13.650Z,100163.25
2022-12-27T03:13:27.264Z,100163.25
2022-12-27T03:16:21.266Z,100160.56
2022-12-27T03:19:00.903Z,100165.63
2022-12-27T03:21:52.774Z,100164.75
2022-12-27T03:24:41.433Z,100168.41
2022-12-27T03:27:17.959Z,100168.09
2022-12-27T03:30:09.007Z,100172.22
2022-12-27T03:32:57.978Z,100166.88
2022-12-27T03:35:25.457Z,100174.41
2022-12-27T03:38:02.477Z,100173.41
2022-12-27T03:40:35.135Z,100175.72
2022-12-27T03:43:13.624Z,100182.72
2022-12-27T03:46:13.350Z,100187.03
2022-12-27T03:49:10.324Z,100196.66
2022-12-27T03:51:40.329Z,100203.66
2022-12-27T03:54:15.416Z,100203.34
2022-12-27T03:56:42.818Z,100207.97
2022-12-27T03:59:10.616Z,100211.59
2022-12-27T04:01:38.063Z,100210.78
2022-12-27T04:04:06.199Z,100213.75
2022-12-27T04:06:33.578Z,100215.91
2022-12-27T04:09:19.738Z,100212.03
2022-12-27T04:12:05.616Z,100223.53
2022-12-27T04:14:52.161Z,100220.31
2022-12-27T04:17:38.513Z,100232.34
2022-12-27T04:20:25.102Z,100229.78
2022-12-27T04:23:11.706Z,100237.13
2022-12-27T04:25:57.603Z,100230.34
2022-12-27T04:28:43.744Z,100230.03
2022-12-27T04:31:29.721Z,100231.06
2022-12-27T04:34:15.665Z,100231.06
2022-12-27T04:36:42.967Z,100240.28
2022-12-27T04:39:11.935Z,100253.75
2022-12-27T04:41:58.861Z,100262.06
2022-12-27T04:44:45.153Z,100249.16
2022-12-27T04:47:32.193Z,100265.13
2022-12-27T04:50:18.564Z,100273.84
2022-12-27T04:53:04.514Z,100278.06
2022-12-27T04:55:32.125Z,100286.38
2022-12-27T04:57:59.532Z,100286.50
2022-12-27T05:00:47.290Z,100300.75
2022-12-27T05:03:19.407Z,100306.66
2022-12-27T05:05:46.905Z,100311.09
2022-12-27T05:08:32.798Z,100324.03
2022-12-27T05:11:19.708Z,100326.62
2022-12-27T05:14:02.285Z,100320.19
2022-12-27T05:16:37.751Z,100323.78
2022-12-27T05:19:06.147Z,100317.66
2022-12-27T05:21:39.895Z,100328.53
2022-12-27T05:24:26.131Z,100329.88
2022-12-27T05:26:56.068Z,100326.56
2022-12-27T05:29:23.387Z,100339.91
2022-12-27T05:31:50.754Z,100348.19
2022-12-27T05:34:18.383Z,100338.37
2022-12-27T05:36:45.703Z,100351.59
2022-12-27T05:39:13.088Z,100376.72
2022-12-27T05:41:40.716Z,100375.41
2022-12-27T05:44:08.056Z,100372.59
2022-12-27T05:46:36.060Z,100372.22
2022-12-27T05:49:03.701Z,100375.91
2022-12-27T05:51:31.059Z,100384.44
2022-12-27T05:53:58.401Z,100380.66
2022-12-27T05:56:26.025Z,100378.56
2022-12-27T05:58:53.553Z,100393.75
2022-12-27T06:01:21.058Z,100409.09
2022-12-27T06:03:48.705Z,100410.41
2022-12-27T06:06:16.031Z,100419.03
2022-12-27T06:08:43.398Z,100413.31
2022-12-27T06:11:12.623Z,100420.97
2022-12-27T06:13:40.363Z,100427.91
2022-12-27T06:16:08.655Z,100422.50
2022-12-27T06:18:37.038Z,100429.00
2022-12-27T06:21:08.036Z,100426.72
2022-12-27T06:23:37.047Z,100422.88
2022-12-27T06:26:08.104Z,100426.09
2022-12-27T06:28:36.025Z,100435.00
2022-12-27T06:31:03.374Z,100446.03
2022-12-27T06:33:30.805Z,100457.72
2022-12-27T06:35:58.444Z,100453.22
2022-12-27T06:38:25.894Z,100453.63
2022-12-27T06:40:53.291Z,100460.75
2022-12-27T06:43:20.906Z,100461.16
2022-12-27T06:45:56.221Z,100475.78
2022-12-27T06:48:24.118Z,100466.97
2022-12-27T06:50:51.453Z,100463.59
2022-12-27T06:53:18.856Z,100462.59
2022-12-27T06:55:46.997Z,100472.31
2022-12-27T06:58:14.973Z,100480.25
2022-12-27T07:00:44.051Z,100479.41
2022-12-27T07:03:11.685Z,100489.13
2022-12-27T07:05:39.078Z,100491.13
2022-12-27T07:08:06.568Z,100491.72
2022-12-27T07:10:34.151Z,100499.31
2022-12-27T07:13:01.764Z,100492.09
2022-12-27T07:15:29.365Z,100489.22
2022-12-27T07:17:57.004Z,100503.22
2022-12-27T07:20:24.425Z,100494.03
2022-12-27T07:22:51.815Z,100501.50
2022-12-27T07:25:19.406Z,100498.03
2022-12-27T07:27:46.762Z,100503.12
2022-12-27T07:30:14.201Z,100487.72
2022-12-27T07:32:41.845Z,100489.91
2022-12-27T07:35:09.265Z,100489.53
2022-12-27T07:37:37.409Z,100488.00
2022-12-27T07:40:05.510Z,100488.31
2022-12-27T07:42:32.778Z,100498.34
2022-12-27T07:45:00.237Z,100513.06
2022-12-27T07:47:28.299Z,100518.56
2022-12-27T07:49:55.673Z,100523.72
2022-12-27T07:52:23.002Z,100542.41
2022-12-27T07:54:50.590Z,100538.50
2022-12-27T07:57:17.954Z,100542.69
2022-12-27T07:59:45.299Z,100557.88
2022-12-27T08:02:13.783Z,100556.75
2022-12-27T08:04:41.588Z,100571.69
2022-12-27T08:07:13.552Z,100562.87
2022-12-27T08:09:41.248Z,100574.75
2022-12-27T08:12:08.674Z,100593.31
2022-12-27T08:14:36.168Z,100577.41
2022-12-27T08:17:22.687Z,100577.88
2022-12-27T08:19:53.421Z,100582.50
2022-12-27T08:22:21.828Z,100584.50
2022-12-27T08:24:49.399Z,100594.84
2022-12-27T08:27:23.282Z,100589.09
2022-12-27T08:29:50.954Z,100600.28
2022-12-27T08:32:18.316Z,100598.59
2022-12-27T08:34:45.667Z,100612.41
2022-12-27T08:37:13.815Z,100611.72
2022-12-27T08:39:41.427Z,100615.03
2022-12-27T08:42:11.746Z,100621.47
2022-12-27T08:44:39.408Z,100632.63
2022-12-27T08:47:07.047Z,100633.34
2022-12-27T08:49:34.476Z,100632.47
2022-12-27T08:52:02.131Z,100636.97
2022-12-27T08:54:29.488Z,100636.53
2022-12-27T08:56:56.822Z,100629.00
2022-12-27T08:59:24.459Z,100652.28
2022-12-27T09:01:51.813Z,100656.91
2022-12-27T09:04:19.266Z,100663.75
2022-12-27T09:06:46.848Z,100665.84
2022-12-27T09:09:14.167Z,100652.88
2022-12-27T09:11:41.585Z,100673.22
2022-12-27T09:14:09.615Z,100657.06
2022-12-27T09:16:37.045Z,100661.47
2022-12-27T09:19:04.783Z,100672.78
2022-12-27T09:21:33.980Z,100659.25
2022-12-27T09:24:01.554Z,100670.06
2022-12-27T09:26:29.871Z,100683.34
2022-12-27T09:28:57.605Z,100664.66
2022-12-27T09:31:25.137Z,100664.13
2022-12-27T09:33:52.951Z,100680.03
2022-12-27T09:36:25.008Z,100688.28
2022-12-27T09:38:52.827Z,100699.94
2022-12-27T09:45:00.949Z,100740.66
2022-12-27T09:47:34.631Z,100698.53
2022-12-27T09:50:26.011Z,100708.66
2022-12-27T09:52:59.208Z,100689.75
2022-12-27T09:55:43.044Z,100718.56
2022-12-27T09:58:34.862Z,100713.88
2022-12-27T10:01:02.587Z,100726.16
2022-12-27T10:03:30.234Z,100702.94
2022-12-27T10:06:38.070Z,100737.38
2022-12-27T10:09:17.794Z,100744.84
2022-12-27T10:12:23.405Z,100706.94
2022-12-27T10:15:23.892Z,100742.06
2022-12-27T10:18:03.361Z,100713.84
2022-12-27T10:20:58.315Z,100725.44
2022-12-27T10:23:28.386Z,100760.56
2022-12-27T10:26:00.369Z,100741.28
2022-12-27T10:28:39.417Z,100740.84
2022-12-27T10:31:13.033Z,100733.72
2022-12-27T10:33:40.559Z,100732.22
2022-12-27T10:36:10.491Z,100739.81
2022-12-27T10:38:37.900Z,100732.56
2022-12-27T10:41:32.248Z,100746.16
2022-12-27T10:44:00.101Z,100739.59
2022-12-27T10:46:33.323Z,100722.91
2022-12-27T10:49:22.443Z,100713.25
2022-12-27T10:51:54.074Z,100732.31
2022-12-27T10:54:26.501Z,100708.28
2022-12-27T10:56:54.055Z,100742.88
2022-12-27T10:59:22.588Z,100738.31
2022-12-27T11:02:14.981Z,100739.28
2022-12-27T11:04:56.900Z,100720.44
2022-12-27T11:07:28.778Z,100766.66
2022-12-27T11:10:07.883Z,100754.31
2022-12-27T11:12:36.249Z,100772.00
2022-12-27T11:15:10.043Z,100755.13
2022-12-27T11:17:50.384Z,100760.75
2022-12-27T11:20:25.641Z,100727.25
2022-12-27T11:23:04.041Z,100745.53
2022-12-27T11:25:31.677Z,100756.78
2022-12-27T11:28:06.952Z,100753.56
2022-12-27T11:30:36.686Z,100756.38
2022-12-27T11:33:06.978Z,100753.66
2022-12-27T11:35:37.378Z,100732.06
2022-12-27T11:38:04.809Z,100742.37
2022-12-27T11:40:34.739Z,100736.47
2022-12-27T11:43:08.083Z,100747.53
2022-12-27T11:45:44.619Z,100756.22
2022-12-27T11:48:35.725Z,100744.34
2022-12-27T11:51:41.061Z,100757.22
2022-12-27T11:54:26.833Z,100755.75
2022-12-27T11:57:00.763Z,100760.34
2022-12-27T11:59:36.654Z,100778.34
2022-12-27T12:02:26.668Z,100747.88
2022-12-27T12:05:09.534Z,100759.47
2022-12-27T12:07:36.986Z,100743.91
2022-12-27T12:10:35.215Z,100749.91
2022-12-27T12:13:12.005Z,100747.50
2022-12-27T12:15:48.631Z,100752.75
2022-12-27T12:18:43.093Z,100746.88
2022-12-27T12:21:26.859Z,100775.09
2022-12-27T12:24:14.863Z,100743.34
2022-12-27T12:27:04.328Z,100745.31
2022-12-27T12:30:10.324Z,100747.62
2022-12-27T12:32:56.369Z,100738.25
2022-12-27T12:35:38.788Z,100717.09
2022-12-27T12:38:12.938Z,100753.16
2022-12-27T12:41:03.420Z,100757.59
2022-12-27T12:43:49.710Z,100753.91
2022-12-27T12:46:25.957Z,100767.47
2022-12-27T12:49:26.301Z,100754.97
2022-12-27T12:52:19.663Z,100765.78
2022-12-27T12:55:01.438Z,100775.03
2022-12-27T12:57:40.889Z,100788.63
2022-12-27T13:00:12.691Z,100788.59
2022-12-27T13:03:17.153Z,100789.31
2022-12-27T13:06:03.527Z,100795.00
2022-12-27T13:09:03.574Z,100767.78
2022-12-27T13:11:40.309Z,100839.06
2022-12-27T13:14:25.172Z,100796.84
2022-12-27T13:17:07.327Z,100812.81
2022-12-27T13:19:55.837Z,100793.16
2022-12-27T13:22:58.235Z,100770.38
2022-12-27T13:25:44.094Z,100788.63
2022-12-27T13:28:36.497Z,100785.94
2022-12-27T13:31:30.365Z,100809.50
2022-12-27T13:34:13.232Z,100817.84
2022-12-27T13:37:10.926Z,100812.09
2022-12-27T13:40:16.690Z,100823.97
2022-12-27T13:43:21.446Z,100856.53
2022-12-27T13:46:08.425Z,100841.38
2022-12-27T13:48:56.670Z,100850.97
2022-12-27T13:51:27.940Z,100835.88
2022-12-27T13:54:16.754Z,100848.19
2022-12-27T13:56:54.513Z,100866.69
2022-12-27T13:59:36.925Z,100856.84
2022-12-27T14:02:19.869Z,100868.31
2022-12-27T14:05:04.575Z,100865.66
2022-12-27T14:07:49.011Z,100883.91
2022-12-27T14:10:26.675Z,100890.72
2022-12-27T14:13:01.876Z,100907.00
2022-12-27T14:15:43.461Z,100903.31
2022-12-27T14:18:35.381Z,100909.97
2022-12-27T14:21:09.667Z,100925.28
2022-12-27T14:23:55.347Z,100924.97
2022-12-27T14:26:48.303Z,100924.13
2022-12-27T14:29:25.128Z,100921.19
2022-12-27T14:32:25.159Z,100922.69
2022-12-27T14:35:04.709Z,100930.28
2022-12-27T14:37:53.393Z,100931.59
2022-12-27T14:40:38.705Z,100936.69
2022-12-27T14:43:31.597Z,100925.41
2022-12-27T14:46:17.228Z,100939.84
2022-12-27T14:49:22.403Z,100942.34
2022-12-27T14:52:17.271Z,100931.59
2022-12-27T14:55:32.758Z,100944.19
2022-12-27T14:58:12.485Z,100947.81
2022-12-27T15:01:11.183Z,100957.19
2022-12-27T15:03:54.559Z,100947.19
2022-12-27T15:06:38.126Z,100959.34
2022-12-27T15:09:27.150Z,100956.50
2022-12-27T15:12:05.854Z,100958.22
2022-12-27T15:14:55.106Z,100941.81
2022-12-27T15:17:28.385Z,100960.69
2022-12-27T15:20:24.857Z,100946.38
2022-12-27T15:22:55.433Z,100959.19
2022-12-27T15:25:44.425Z,100960.69
2022-12-27T15:28:18.189Z,100976.97
2022-12-27T15:31:09.738Z,100986.37
2022-12-27T15:34:08.486Z,100976.72
2022-12-27T15:36:46.566Z,100981.28
2022-12-27T15:39:50.101Z,100980.56
2022-12-27T15:42:34.781Z,100975.53
2022-12-27T15:45:50.712Z,100964.03
2022-12-27T15:48:57.122Z,100978.28
2022-12-27T15:51:48.112Z,100982.78
2022-12-27T15:54:33.713Z,100996.13
2022-12-27T15:57:32.769Z,100996.06
2022-12-27T16:00:24.573Z,100989.41
2022-12-27T16:02:59.654Z,101006.47
2022-12-27T16:05:45.072Z,101001.22
2022-12-27T16:08:27.112Z,101007.78
2022-12-27T16:10:55.318Z,101008.28
2022-12-27T16:13:39.463Z,100998.84
2022-12-27T16:16:11.431Z,101008.19
2022-12-27T16:18:51.534Z,101005.63
2022-12-27T16:21:23.657Z,101013.06
2022-12-27T16:23:56.118Z,101008.69
2022-12-27T16:26:30.763Z,101015.22
2022-12-27T16:29:00.252Z,101002.41
2022-12-27T16:31:28.808Z,101013.97
2022-12-27T16:33:56.897Z,101009.69
2022-12-27T16:36:31.427Z,101013.88
2022-12-27T16:39:11.473Z,101017.88
2022-12-27T16:41:54.281Z,101018.00
2022-12-27T16:44:24.415Z,101022.59
2022-12-27T16:46:51.996Z,101011.03
2022-12-27T16:49:57.112Z,101014.69
2022-12-27T16:53:02.366Z,101014.47
2022-12-27T16:56:00.643Z,101017.97
2022-12-27T16:58:31.098Z,101026.94
2022-12-27T17:00:59.476Z,101022.59
2022-12-27T17:03:32.194Z,101024.09
2022-12-27T17:09:08.029Z,101029.63
2022-12-27T17:11:43.144Z,101033.25
2022-12-27T17:14:18.647Z,101034.84
2022-12-27T17:16:51.296Z,101029.16
2022-12-27T17:19:29.340Z,101041.94
2022-12-27T17:21:58.389Z,101046.06
2022-12-27T17:24:25.778Z,101050.34
2022-12-27T17:26:53.055Z,101050.47
2022-12-27T17:29:29.759Z,101054.00
2022-12-27T17:32:03.720Z,101065.50
2022-12-27T17:35:03.822Z,101065.91
2022-12-27T17:37:40.329Z,101068.63
2022-12-27T17:40:20.516Z,101069.38
2022-12-27T17:43:24.889Z,101069.59
2022-12-27T17:45:56.998Z,101070.84
2022-12-27T17:48:29.187Z,101063.97
2022-12-27T17:51:10.420Z,101066.75
2022-12-27T17:54:06.941Z,101067.16
2022-12-27T17:57:06.180Z,101069.41
2022-12-27T17:59:37.643Z,101080.03
2022-12-27T18:02:25.003Z,101083.81
2022-12-27T18:04:54.048Z,101098.19
2022-12-27T18:07:28.518Z,101093.50
2022-12-27T18:09:57.947Z,101098.34
2022-12-27T18:12:30.066Z,101098.56
2022-12-27T18:15:02.644Z,101102.78
2022-12-27T18:17:34.355Z,101108.22
2022-12-27T18:20:26.266Z,101105.00
2022-12-27T18:23:00.025Z,101102.78
2022-12-27T18:25:34.568Z,101101.94
2022-12-27T18:28:30.482Z,101105.31
2022-12-27T18:31:08.572Z,101104.25
2022-12-27T18:33:50.617Z,101103.94
2022-12-27T18:36:23.001Z,101100.38
2022-12-27T18:38:59.090Z,101101.75
2022-12-27T18:41:26.763Z,101105.53
2022-12-27T18:44:00.677Z,101109.56
2022-12-27T18:46:33.752Z,101109.13
2022-12-27T18:49:01.218Z,101118.66
2022-12-27T18:51:33.170Z,101128.44
2022-12-27T18:54:00.574Z,101125.59
2022-12-27T18:56:32.745Z,101124.22
2022-12-27T18:59:12.926Z,101122.84
2022-12-27T19:01:41.796Z,101115.69
2022-12-27T19:04:17.087Z,101112.72
2022-12-27T19:06:51.742Z,101113.16
2022-12-27T19:09:19.788Z,101110.16
2022-12-27T19:12:01.224Z,101104.91
2022-12-27T19:14:42.761Z,101109.97
2022-12-27T19:17:17.481Z,101119.38
2022-12-27T19:19:49.137Z,101122.66
2022-12-27T19:22:36.453Z,101128.97
2022-12-27T19:25:06.870Z,101128.66
2022-12-27T19:27:34.240Z,101133.38
2022-12-27T19:30:01.749Z,101128.56
2022-12-27T19:32:32.219Z,101128.75
2022-12-27T19:35:00.545Z,101123.06
2022-12-27T19:37:28.524Z,101124.47
2022-12-27T19:39:56.239Z,101116.09
2022-12-27T19:42:31.355Z,101113.25
2022-12-27T19:44:59.017Z,101109.38
2022-12-27T19:47:27.204Z,101116.22
2022-12-27T19:49:54.594Z,101111.72
2022-12-27T19:52:24.899Z,101113.19
2022-12-27T19:54:55.444Z,101116.09
2022-12-27T19:57:23.307Z,101124.25
2022-12-27T19:59:50.676Z,101123.09
2022-12-27T20:02:18.552Z,101116.59
2022-12-27T20:04:46.418Z,101124.66
2022-12-27T20:07:20.175Z,101118.59
2022-12-27T20:09:47.808Z,101115.22
2022-12-27T20:12:16.988Z,101121.37
2022-12-27T20:14:44.451Z,101123.38
2022-12-27T20:17:12.136Z,101114.34
2022-12-27T20:19:39.467Z,101118.03
2022-12-27T20:22:06.883Z,101124.09
2022-12-27T20:24:37.021Z,101131.28
2022-12-27T20:27:04.737Z,101127.91
2022-12-27T20:29:32.082Z,101136.78
2022-12-27T20:31:59.917Z,101135.53
2022-12-27T20:34:27.321Z,101140.56
2022-12-27T20:36:55.481Z,101141.22
2022-12-27T20:39:23.362Z,101134.03
2022-12-27T20:41:50.748Z,101135.37
2022-12-27T20:44:19.306Z,101120.41
2022-12-27T20:46:47.647Z,101121.66
2022-12-27T20:49:15.001Z,101131.38
2022-12-27T20:51:42.338Z,101131.16
2022-12-27T20:54:10.042Z,101143.28
2022-12-27T20:56:37.420Z,101141.59
2022-12-27T20:59:04.803Z,101145.00
2022-12-27T21:01:32.512Z,101145.84
2022-12-27T21:04:00.028Z,101155.13
2022-12-27T21:06:28.223Z,101156.16
2022-12-27T21:08:57.624Z,101138.13
2022-12-27T21:11:33.171Z,101143.50
2022-12-27T21:14:01.898Z,101146.59
2022-12-27T21:16:30.466Z,101146.44
2022-12-27T21:18:57.940Z,101152.78
2022-12-27T21:21:28.399Z,101160.38
2022-12-27T21:23:58.006Z,101151.53
2022-12-27T21:26:27.522Z,101157.84
2022-12-27T21:28:55.206Z,101161.88
2022-12-27T21:31:22.681Z,101165.56
2022-12-27T21:33:50.548Z,101174.91
2022-12-27T21:36:25.009Z,101180.44
2022-12-27T21:38:52.889Z,101169.78
2022-12-27T21:41:24.985Z,101170.72
2022-12-27T21:43:52.596Z,101167.25
2022-12-27T21:46:27.002Z,101169.50
2022-12-27T21:48:59.209Z,101167.25
2022-12-27T21:51:27.050Z,101170.53
2022-12-27T21:53:54.717Z,101171.84
2022-12-27T21:56:22.113Z,101182.91
2022-12-27T21:58:49.584Z,101175.38
2022-12-27T22:01:24.109Z,101181.59
2022-12-27T22:03:52.603Z,101178.06
2022-12-27T22:06:30.417Z,101174.47
2022-12-27T22:08:59.685Z,101170.00
2022-12-27T22:11:27.231Z,101181.03
2022-12-27T22:13:54.726Z,101171.91
2022-12-27T22:16:27.165Z,101175.53
2022-12-27T22:18:56.124Z,101170.53
2022-12-27T22:21:26.119Z,101175.94
2022-12-27T22:23:54.250Z,101172.69
2022-12-27T22:26:23.726Z,101182.91
2022-12-27T22:28:51.381Z,101184.41
2022-12-27T22:31:26.068Z,101177.22
2022-12-27T22:33:53.656Z,101186.28
2022-12-27T22:36:22.135Z,101192.19
2022-12-27T22:38:50.841Z,101184.88
2022-12-27T22:41:20.832Z,101184.00
2022-12-27T22:43:53.043Z,101186.91
2022-12-27T22:46:20.739Z,101194.94
2022-12-27T22:48:52.062Z,101179.81
2022-12-27T22:51:21.823Z,101168.69
2022-12-27T22:53:49.598Z,101162.78
2022-12-27T22:56:20.972Z,101166.09
2022-12-27T22:58:48.717Z,101163.94
2022-12-27T23:01:20.946Z,101175.56
2022-12-27T23:03:48.735Z,101174.81
2022-12-27T23:06:16.113Z,101161.59
2022-12-27T23:08:43.658Z,101155.16
2022-12-27T23:11:16.168Z,101159.91
2022-12-27T23:13:43.634Z,101153.19
2022-12-27T23:16:11.307Z,101139.88
2022-12-27T23:18:41.940Z,101163.09
2022-12-27T23:21:20.868Z,101152.00
2022-12-27T23:23:52.164Z,101171.31
2022-12-27T23:26:21.402Z,101169.94
2022-12-27T23:28:49.153Z,101155.72
2022-12-27T23:31:16.913Z,101151.66
2022-12-27T23:33:44.292Z,101144.12
2022-12-27T23:36:12.059Z,101139.69
2022-12-27T23:38:41.451Z,101137.00
2022-12-27T23:41:08.966Z,101141.63
2022-12-27T23:43:55.393Z,101138.78
2022-12-27T23:46:25.125Z,101137.31
2022-12-27T23:48:52.621Z,101132.50
2022-12-27T23:51:20.167Z,101123.69
2022-12-27T23:53:47.794Z,101121.16
2022-12-27T23:56:17.152Z,101122.66
2022-12-27T23:58:44.873Z,101116.69
